SFR140 FACT-FAPE
Flight info
| Callsign | SFR140 |
|---|---|
| Flight time | 1h 7m |
| Altitude | 35000 |
| Route | OKTED UQ12 XUGOL UQ56 OKSET DCT PEV |
| Aircraft | B738/M-SDE2E3FGHIRWXY/LB1 |
Departure
| Time | 2026-04-21 13:09 |
|---|---|
| Airport | Cape Town International Airport (FACT) |
Arrival
| Time | 2026-04-21 14:16 |
|---|---|
| Airport | Chief Dawid Stuurman International Airport (FAPE) |
| Time | Latitude | Longitude | Altitude | Speed | Heading |
|---|---|---|---|---|---|
| 2026-04-21 12:39 | -33.97075 | 18.59861 | 156 ft | 0 kts | 255° |
| 2026-04-21 12:59 | -33.97074 | 18.59866 | 156 ft | 2 kts | 253° |
| 2026-04-21 13:00 | -33.97069 | 18.59885 | 156 ft | 2 kts | 255° |
| 2026-04-21 13:00 | -33.97065 | 18.59904 | 156 ft | 2 kts | 253° |
| 2026-04-21 13:00 | -33.97060 | 18.59923 | 156 ft | 2 kts | 250° |
| 2026-04-21 13:00 | -33.97053 | 18.59941 | 156 ft | 2 kts | 221° |
| 2026-04-21 13:01 | -33.97040 | 18.59945 | 156 ft | 0 kts | 165° |
| 2026-04-21 13:03 | -33.97073 | 18.59955 | 156 ft | 10 kts | 165° |
| 2026-04-21 13:03 | -33.97169 | 18.59976 | 156 ft | 18 kts | 165° |
| 2026-04-21 13:03 | -33.97310 | 18.60020 | 156 ft | 24 kts | 165° |
| 2026-04-21 13:04 | -33.97485 | 18.60081 | 156 ft | 27 kts | 161° |
| 2026-04-21 13:04 | -33.97667 | 18.60170 | 156 ft | 30 kts | 160° |
| 2026-04-21 13:04 | -33.97865 | 18.60256 | 156 ft | 31 kts | 160° |
| 2026-04-21 13:04 | -33.98062 | 18.60340 | 156 ft | 30 kts | 160° |
| 2026-04-21 13:05 | -33.98249 | 18.60420 | 156 ft | 27 kts | 161° |
| 2026-04-21 13:05 | -33.98423 | 18.60495 | 156 ft | 26 kts | 161° |
| 2026-04-21 13:05 | -33.98587 | 18.60565 | 156 ft | 24 kts | 160° |
| 2026-04-21 13:05 | -33.98740 | 18.60631 | 155 ft | 22 kts | 160° |
| 2026-04-21 13:06 | -33.98799 | 18.60729 | 154 ft | 15 kts | 78° |
| 2026-04-21 13:06 | -33.98789 | 18.60776 | 154 ft | 0 kts | 74° |
| 2026-04-21 13:07 | -33.98779 | 18.60815 | 155 ft | 11 kts | 69° |
| 2026-04-21 13:07 | -33.98706 | 18.60865 | 154 ft | 6 kts | 347° |
| 2026-04-21 13:08 | -33.98672 | 18.60855 | 153 ft | 1 kts | 345° |
| 2026-04-21 13:08 | -33.98448 | 18.60784 | 152 ft | 74 kts | 345° |
| 2026-04-21 13:08 | -33.97702 | 18.60548 | 153 ft | 145 kts | 346° |
| 2026-04-21 13:08 | -33.96545 | 18.60196 | 377 ft | 189 kts | 343° |
| 2026-04-21 13:09 | -33.95217 | 18.59813 | 1116 ft | 200 kts | 342° |
| 2026-04-21 13:09 | -33.93870 | 18.59430 | 2165 ft | 199 kts | 343° |
| 2026-04-21 13:09 | -33.92435 | 18.59058 | 2542 ft | 224 kts | 345° |
| 2026-04-21 13:09 | -33.90844 | 18.58630 | 2921 ft | 240 kts | 344° |
| 2026-04-21 13:10 | -33.89192 | 18.58193 | 3577 ft | 246 kts | 344° |
| 2026-04-21 13:10 | -33.87521 | 18.57766 | 4379 ft | 244 kts | 344° |
| 2026-04-21 13:10 | -33.85857 | 18.57350 | 5156 ft | 245 kts | 345° |
| 2026-04-21 13:10 | -33.84177 | 18.56929 | 5851 ft | 248 kts | 345° |
| 2026-04-21 13:11 | -33.82486 | 18.56504 | 6614 ft | 249 kts | 344° |
| 2026-04-21 13:11 | -33.80802 | 18.56086 | 7293 ft | 251 kts | 344° |
| 2026-04-21 13:11 | -33.79065 | 18.55661 | 7971 ft | 253 kts | 344° |
| 2026-04-21 13:11 | -33.77328 | 18.55351 | 8603 ft | 262 kts | 359° |
| 2026-04-21 13:12 | -33.75588 | 18.56092 | 9229 ft | 275 kts | 35° |
| 2026-04-21 13:12 | -33.74407 | 18.57915 | 9876 ft | 283 kts | 66° |
| 2026-04-21 13:12 | -33.73984 | 18.60233 | 10437 ft | 288 kts | 91° |
| 2026-04-21 13:12 | -33.74330 | 18.62618 | 11010 ft | 287 kts | 115° |
| 2026-04-21 13:13 | -33.75258 | 18.64737 | 11589 ft | 287 kts | 125° |
| 2026-04-21 13:13 | -33.76308 | 18.66751 | 12156 ft | 290 kts | 127° |
| 2026-04-21 13:13 | -33.77409 | 18.68797 | 12740 ft | 292 kts | 128° |
| 2026-04-21 13:13 | -33.78514 | 18.70853 | 13344 ft | 294 kts | 128° |
| 2026-04-21 13:14 | -33.79622 | 18.72935 | 13916 ft | 297 kts | 128° |
| 2026-04-21 13:14 | -33.80735 | 18.75044 | 14410 ft | 301 kts | 128° |
| 2026-04-21 13:14 | -33.81855 | 18.77183 | 14878 ft | 304 kts | 127° |
| 2026-04-21 13:14 | -33.82988 | 18.79357 | 15347 ft | 308 kts | 127° |
| 2026-04-21 13:15 | -33.84129 | 18.81557 | 15875 ft | 312 kts | 127° |
| 2026-04-21 13:15 | -33.85282 | 18.83786 | 16419 ft | 316 kts | 127° |
| 2026-04-21 13:15 | -33.86449 | 18.86047 | 16935 ft | 320 kts | 127° |
| 2026-04-21 13:15 | -33.87632 | 18.88342 | 17435 ft | 324 kts | 127° |
| 2026-04-21 13:16 | -33.88824 | 18.90657 | 17912 ft | 328 kts | 127° |
| 2026-04-21 13:16 | -33.90032 | 18.93007 | 18375 ft | 332 kts | 127° |
| 2026-04-21 13:16 | -33.91253 | 18.95385 | 18776 ft | 335 kts | 127° |
| 2026-04-21 13:16 | -33.92484 | 18.97784 | 19183 ft | 339 kts | 128° |
| 2026-04-21 13:17 | -33.93728 | 19.00210 | 19581 ft | 342 kts | 127° |
| 2026-04-21 13:17 | -33.94987 | 19.02663 | 19897 ft | 346 kts | 127° |
| 2026-04-21 13:17 | -33.96252 | 19.05136 | 20255 ft | 348 kts | 127° |
| 2026-04-21 13:17 | -33.97522 | 19.07626 | 20499 ft | 350 kts | 127° |
| 2026-04-21 13:18 | -33.98802 | 19.10123 | 20918 ft | 352 kts | 128° |
| 2026-04-21 13:18 | -34.00095 | 19.12649 | 21279 ft | 356 kts | 127° |
| 2026-04-21 13:18 | -34.01398 | 19.15202 | 21636 ft | 359 kts | 127° |
| 2026-04-21 13:18 | -34.02714 | 19.17780 | 21999 ft | 362 kts | 127° |
| 2026-04-21 13:19 | -34.04039 | 19.20379 | 22348 ft | 365 kts | 127° |
| 2026-04-21 13:19 | -34.05375 | 19.23001 | 22708 ft | 368 kts | 127° |
| 2026-04-21 13:19 | -34.06707 | 19.25657 | 23054 ft | 373 kts | 123° |
| 2026-04-21 13:19 | -34.07665 | 19.28598 | 23376 ft | 383 kts | 107° |
| 2026-04-21 13:20 | -34.08056 | 19.31796 | 23709 ft | 388 kts | 95° |
| 2026-04-21 13:20 | -34.08215 | 19.35064 | 23987 ft | 390 kts | 94° |
| 2026-04-21 13:20 | -34.08344 | 19.38338 | 24297 ft | 392 kts | 94° |
| 2026-04-21 13:20 | -34.08469 | 19.41625 | 24600 ft | 393 kts | 94° |
| 2026-04-21 13:21 | -34.08599 | 19.44927 | 24888 ft | 395 kts | 94° |
| 2026-04-21 13:21 | -34.08736 | 19.48239 | 25199 ft | 396 kts | 94° |
| 2026-04-21 13:21 | -34.08878 | 19.51516 | 25477 ft | 398 kts | 94° |
| 2026-04-21 13:21 | -34.09025 | 19.54854 | 25739 ft | 399 kts | 94° |
| 2026-04-21 13:22 | -34.09173 | 19.58202 | 26013 ft | 401 kts | 94° |
| 2026-04-21 13:22 | -34.09324 | 19.61567 | 26272 ft | 403 kts | 94° |
| 2026-04-21 13:22 | -34.09475 | 19.64947 | 26539 ft | 404 kts | 94° |
| 2026-04-21 13:22 | -34.09626 | 19.68337 | 26805 ft | 406 kts | 94° |
| 2026-04-21 13:23 | -34.09777 | 19.71736 | 27051 ft | 408 kts | 94° |
| 2026-04-21 13:23 | -34.09928 | 19.75161 | 27299 ft | 409 kts | 94° |
| 2026-04-21 13:23 | -34.10078 | 19.78595 | 27559 ft | 411 kts | 94° |
| 2026-04-21 13:23 | -34.10228 | 19.82045 | 27822 ft | 412 kts | 93° |
| 2026-04-21 13:24 | -34.10377 | 19.85508 | 28065 ft | 414 kts | 94° |
| 2026-04-21 13:24 | -34.10527 | 19.88990 | 28302 ft | 416 kts | 93° |
| 2026-04-21 13:24 | -34.10676 | 19.92485 | 28539 ft | 418 kts | 93° |
| 2026-04-21 13:24 | -34.10824 | 19.95992 | 28813 ft | 418 kts | 93° |
| 2026-04-21 13:25 | -34.10972 | 19.99502 | 29039 ft | 420 kts | 93° |
| 2026-04-21 13:25 | -34.11120 | 20.03032 | 29196 ft | 423 kts | 93° |
| 2026-04-21 13:25 | -34.11267 | 20.06583 | 29383 ft | 425 kts | 93° |
| 2026-04-21 13:25 | -34.11414 | 20.10146 | 29589 ft | 426 kts | 93° |
| 2026-04-21 13:26 | -34.11561 | 20.13723 | 29775 ft | 428 kts | 93° |
| 2026-04-21 13:26 | -34.11707 | 20.17315 | 29981 ft | 429 kts | 93° |
| 2026-04-21 13:26 | -34.11852 | 20.20916 | 30154 ft | 430 kts | 93° |
| 2026-04-21 13:26 | -34.11997 | 20.24522 | 30309 ft | 432 kts | 93° |
| 2026-04-21 13:27 | -34.12141 | 20.28151 | 30441 ft | 434 kts | 93° |
| 2026-04-21 13:27 | -34.12284 | 20.31791 | 30591 ft | 435 kts | 93° |
| 2026-04-21 13:27 | -34.12427 | 20.35440 | 30740 ft | 436 kts | 93° |
| 2026-04-21 13:27 | -34.12570 | 20.39102 | 30872 ft | 437 kts | 92° |
| 2026-04-21 13:28 | -34.12712 | 20.42774 | 31017 ft | 439 kts | 92° |
| 2026-04-21 13:28 | -34.12853 | 20.46455 | 31164 ft | 439 kts | 92° |
| 2026-04-21 13:28 | -34.12993 | 20.50143 | 31288 ft | 441 kts | 92° |
| 2026-04-21 13:28 | -34.13133 | 20.53844 | 31398 ft | 443 kts | 92° |
| 2026-04-21 13:29 | -34.13272 | 20.57562 | 31516 ft | 444 kts | 92° |
| 2026-04-21 13:29 | -34.13410 | 20.61290 | 31640 ft | 445 kts | 92° |
| 2026-04-21 13:29 | -34.13546 | 20.64980 | 31762 ft | 446 kts | 92° |
| 2026-04-21 13:29 | -34.13683 | 20.68729 | 31882 ft | 448 kts | 92° |
| 2026-04-21 13:30 | -34.13819 | 20.72489 | 31991 ft | 449 kts | 92° |
| 2026-04-21 13:30 | -34.13954 | 20.76256 | 32105 ft | 450 kts | 92° |
| 2026-04-21 13:30 | -34.14088 | 20.80023 | 32217 ft | 450 kts | 91° |
| 2026-04-21 13:30 | -34.14221 | 20.83806 | 32337 ft | 451 kts | 91° |
| 2026-04-21 13:31 | -34.14485 | 20.91400 | 32536 ft | 454 kts | 91° |
| 2026-04-21 13:31 | -34.14746 | 20.99030 | 32730 ft | 456 kts | 91° |
| 2026-04-21 13:32 | -34.14875 | 21.02853 | 32835 ft | 456 kts | 91° |
| 2026-04-21 13:32 | -34.15003 | 21.06687 | 32936 ft | 457 kts | 91° |
| 2026-04-21 13:32 | -34.15256 | 21.14361 | 33131 ft | 459 kts | 91° |
| 2026-04-21 13:33 | -34.15381 | 21.18210 | 33234 ft | 459 kts | 90° |
| 2026-04-21 13:33 | -34.15505 | 21.22063 | 33329 ft | 460 kts | 90° |
| 2026-04-21 13:33 | -34.15750 | 21.29787 | 33511 ft | 461 kts | 90° |
| 2026-04-21 13:34 | -34.15990 | 21.37531 | 33672 ft | 462 kts | 90° |
| 2026-04-21 13:34 | -34.16226 | 21.45280 | 33851 ft | 463 kts | 90° |
| 2026-04-21 13:35 | -34.16458 | 21.53059 | 33991 ft | 464 kts | 90° |
| 2026-04-21 13:35 | -34.16685 | 21.60853 | 34127 ft | 465 kts | 89° |
| 2026-04-21 13:36 | -34.16908 | 21.68660 | 34242 ft | 466 kts | 89° |
| 2026-04-21 13:36 | -34.17126 | 21.76481 | 34378 ft | 466 kts | 89° |
| 2026-04-21 13:37 | -34.17340 | 21.84315 | 34489 ft | 467 kts | 89° |
| 2026-04-21 13:37 | -34.17549 | 21.92159 | 34587 ft | 468 kts | 89° |
| 2026-04-21 13:38 | -34.17752 | 21.99971 | 34671 ft | 469 kts | 89° |
| 2026-04-21 13:38 | -34.17853 | 22.03860 | 35054 ft | 458 kts | 88° |
| 2026-04-21 13:38 | -34.17951 | 22.07727 | 34969 ft | 462 kts | 88° |
| 2026-04-21 13:39 | -34.18141 | 22.15455 | 34983 ft | 463 kts | 88° |
| 2026-04-21 13:39 | -34.18106 | 22.23232 | 34981 ft | 459 kts | 80° |
| 2026-04-21 13:40 | -34.17382 | 22.30889 | 34976 ft | 459 kts | 77° |
| 2026-04-21 13:40 | -34.16574 | 22.38538 | 34985 ft | 460 kts | 78° |
| 2026-04-21 13:41 | -34.15796 | 22.46266 | 34937 ft | 469 kts | 78° |
| 2026-04-21 13:41 | -34.15031 | 22.54174 | 34992 ft | 480 kts | 78° |
| 2026-04-21 13:42 | -34.14257 | 22.62264 | 35002 ft | 491 kts | 78° |
| 2026-04-21 13:42 | -34.13461 | 22.70546 | 35004 ft | 502 kts | 78° |
| 2026-04-21 13:43 | -34.12640 | 22.79005 | 35007 ft | 512 kts | 78° |
| 2026-04-21 13:43 | -34.11805 | 22.87574 | 34967 ft | 508 kts | 78° |
| 2026-04-21 13:44 | -34.11408 | 22.91690 | 34962 ft | 493 kts | 78° |
| 2026-04-21 13:44 | -34.11016 | 22.95739 | 34965 ft | 481 kts | 78° |
| 2026-04-21 13:44 | -34.10218 | 23.03759 | 34657 ft | 486 kts | 78° |
| 2026-04-21 13:45 | -34.09812 | 23.07792 | 34336 ft | 482 kts | 78° |
| 2026-04-21 13:45 | -34.09409 | 23.11795 | 33962 ft | 479 kts | 78° |
| 2026-04-21 13:45 | -34.09009 | 23.15778 | 33539 ft | 477 kts | 78° |
| 2026-04-21 13:45 | -34.08610 | 23.19734 | 33152 ft | 474 kts | 78° |
| 2026-04-21 13:46 | -34.08214 | 23.23662 | 32756 ft | 471 kts | 78° |
| 2026-04-21 13:46 | -34.07818 | 23.27571 | 32374 ft | 468 kts | 78° |
| 2026-04-21 13:46 | -34.07423 | 23.31454 | 32000 ft | 465 kts | 78° |
| 2026-04-21 13:46 | -34.07030 | 23.35311 | 31630 ft | 462 kts | 78° |
| 2026-04-21 13:47 | -34.06638 | 23.39138 | 31280 ft | 459 kts | 78° |
| 2026-04-21 13:47 | -34.06246 | 23.42957 | 30908 ft | 456 kts | 78° |
| 2026-04-21 13:47 | -34.05855 | 23.46746 | 30550 ft | 454 kts | 78° |
| 2026-04-21 13:47 | -34.05465 | 23.50513 | 30195 ft | 452 kts | 78° |
| 2026-04-21 13:48 | -34.05076 | 23.54265 | 29802 ft | 449 kts | 78° |
| 2026-04-21 13:48 | -34.04689 | 23.57986 | 29388 ft | 447 kts | 78° |
| 2026-04-21 13:48 | -34.04304 | 23.61686 | 28995 ft | 443 kts | 78° |
| 2026-04-21 13:48 | -34.04045 | 23.64172 | 28756 ft | 441 kts | 78° |
| 2026-04-21 13:49 | -34.03667 | 23.67775 | 28373 ft | 438 kts | 78° |
| 2026-04-21 13:49 | -34.03286 | 23.71403 | 27999 ft | 435 kts | 78° |
| 2026-04-21 13:49 | -34.02907 | 23.75005 | 27630 ft | 432 kts | 78° |
| 2026-04-21 13:49 | -34.02529 | 23.78582 | 27265 ft | 429 kts | 78° |
| 2026-04-21 13:50 | -34.02152 | 23.82137 | 26901 ft | 426 kts | 78° |
| 2026-04-21 13:50 | -34.01776 | 23.85671 | 26547 ft | 424 kts | 78° |
| 2026-04-21 13:50 | -34.01401 | 23.89187 | 26183 ft | 422 kts | 78° |
| 2026-04-21 13:50 | -34.01028 | 23.92682 | 25834 ft | 420 kts | 78° |
| 2026-04-21 13:51 | -34.00654 | 23.96162 | 25471 ft | 418 kts | 78° |
| 2026-04-21 13:51 | -34.00282 | 23.99629 | 25120 ft | 416 kts | 78° |
| 2026-04-21 13:51 | -33.99910 | 24.03081 | 24764 ft | 415 kts | 78° |
| 2026-04-21 13:51 | -33.99538 | 24.06523 | 24389 ft | 414 kts | 78° |
| 2026-04-21 13:52 | -33.99166 | 24.09947 | 24037 ft | 413 kts | 78° |
| 2026-04-21 13:52 | -33.98794 | 24.13373 | 23679 ft | 412 kts | 78° |
| 2026-04-21 13:52 | -33.98421 | 24.16798 | 23266 ft | 411 kts | 79° |
| 2026-04-21 13:52 | -33.98049 | 24.20207 | 22880 ft | 409 kts | 78° |
| 2026-04-21 13:53 | -33.97678 | 24.23599 | 22503 ft | 407 kts | 78° |
| 2026-04-21 13:53 | -33.97309 | 24.26970 | 22158 ft | 405 kts | 78° |
| 2026-04-21 13:53 | -33.96940 | 24.30325 | 21801 ft | 403 kts | 78° |
| 2026-04-21 13:53 | -33.96571 | 24.33669 | 21437 ft | 402 kts | 78° |
| 2026-04-21 13:54 | -33.96203 | 24.36997 | 21091 ft | 400 kts | 78° |
| 2026-04-21 13:54 | -33.95835 | 24.40308 | 20736 ft | 398 kts | 79° |
| 2026-04-21 13:54 | -33.95470 | 24.43600 | 20390 ft | 395 kts | 78° |
| 2026-04-21 13:54 | -33.95105 | 24.46875 | 20046 ft | 393 kts | 79° |
| 2026-04-21 13:55 | -33.94746 | 24.50088 | 19705 ft | 391 kts | 79° |
| 2026-04-21 13:55 | -33.94378 | 24.53373 | 19354 ft | 390 kts | 79° |
| 2026-04-21 13:55 | -33.94017 | 24.56595 | 19017 ft | 388 kts | 79° |
| 2026-04-21 13:55 | -33.93660 | 24.59772 | 18655 ft | 388 kts | 79° |
| 2026-04-21 13:56 | -33.93297 | 24.62987 | 18318 ft | 387 kts | 79° |
| 2026-04-21 13:56 | -33.92935 | 24.66196 | 17923 ft | 385 kts | 79° |
| 2026-04-21 13:56 | -33.92574 | 24.69378 | 17570 ft | 384 kts | 79° |
| 2026-04-21 13:56 | -33.92213 | 24.72550 | 17201 ft | 381 kts | 79° |
| 2026-04-21 13:57 | -33.91855 | 24.75698 | 16863 ft | 378 kts | 79° |
| 2026-04-21 13:57 | -33.91499 | 24.78827 | 16517 ft | 376 kts | 79° |
| 2026-04-21 13:57 | -33.91145 | 24.81922 | 16170 ft | 369 kts | 79° |
| 2026-04-21 13:57 | -33.90797 | 24.84965 | 15856 ft | 365 kts | 79° |
| 2026-04-21 13:58 | -33.90449 | 24.87990 | 15534 ft | 363 kts | 79° |
| 2026-04-21 13:58 | -33.90104 | 24.90990 | 15214 ft | 362 kts | 80° |
| 2026-04-21 13:58 | -33.89759 | 24.93982 | 14895 ft | 360 kts | 80° |
| 2026-04-21 13:58 | -33.89414 | 24.96961 | 14571 ft | 359 kts | 80° |
| 2026-04-21 13:59 | -33.89070 | 24.99925 | 14253 ft | 357 kts | 80° |
| 2026-04-21 13:59 | -33.88729 | 25.02865 | 14059 ft | 348 kts | 80° |
| 2026-04-21 13:59 | -33.88400 | 25.05706 | 13787 ft | 339 kts | 80° |
| 2026-04-21 13:59 | -33.88073 | 25.08506 | 13235 ft | 339 kts | 80° |
| 2026-04-21 14:00 | -33.87745 | 25.11309 | 12781 ft | 335 kts | 80° |
| 2026-04-21 14:00 | -33.87423 | 25.14062 | 12362 ft | 331 kts | 80° |
| 2026-04-21 14:00 | -33.87107 | 25.16752 | 11973 ft | 327 kts | 80° |
| 2026-04-21 14:00 | -33.86787 | 25.19478 | 11572 ft | 323 kts | 80° |
| 2026-04-21 14:01 | -33.86477 | 25.22110 | 11194 ft | 320 kts | 80° |
| 2026-04-21 14:01 | -33.86165 | 25.24753 | 10744 ft | 319 kts | 79° |
| 2026-04-21 14:01 | -33.85854 | 25.27397 | 10297 ft | 317 kts | 80° |
| 2026-04-21 14:01 | -33.85544 | 25.30017 | 9947 ft | 317 kts | 79° |
| 2026-04-21 14:02 | -33.85233 | 25.32636 | 9743 ft | 314 kts | 79° |
| 2026-04-21 14:02 | -33.84924 | 25.35228 | 9436 ft | 313 kts | 79° |
| 2026-04-21 14:02 | -33.84618 | 25.37806 | 9201 ft | 309 kts | 79° |
| 2026-04-21 14:03 | -33.84012 | 25.42880 | 8633 ft | 305 kts | 79° |
| 2026-04-21 14:03 | -33.83710 | 25.45401 | 8370 ft | 303 kts | 79° |
| 2026-04-21 14:03 | -33.83365 | 25.47882 | 8090 ft | 300 kts | 74° |
| 2026-04-21 14:03 | -33.82866 | 25.50308 | 7846 ft | 297 kts | 72° |
| 2026-04-21 14:04 | -33.82347 | 25.52702 | 7603 ft | 295 kts | 72° |
| 2026-04-21 14:04 | -33.81820 | 25.55083 | 7339 ft | 293 kts | 72° |
| 2026-04-21 14:04 | -33.81297 | 25.57445 | 7090 ft | 292 kts | 72° |
| 2026-04-21 14:04 | -33.80778 | 25.59786 | 6874 ft | 289 kts | 72° |
| 2026-04-21 14:05 | -33.80254 | 25.62105 | 6650 ft | 286 kts | 72° |
| 2026-04-21 14:05 | -33.79732 | 25.64406 | 6409 ft | 285 kts | 72° |
| 2026-04-21 14:05 | -33.79207 | 25.66696 | 6145 ft | 283 kts | 72° |
| 2026-04-21 14:05 | -33.78690 | 25.68943 | 5868 ft | 282 kts | 72° |
| 2026-04-21 14:06 | -33.78167 | 25.71212 | 5574 ft | 281 kts | 72° |
| 2026-04-21 14:06 | -33.77640 | 25.73465 | 5310 ft | 279 kts | 72° |
| 2026-04-21 14:06 | -33.77109 | 25.75702 | 5092 ft | 276 kts | 72° |
| 2026-04-21 14:06 | -33.76585 | 25.77887 | 5020 ft | 267 kts | 72° |
| 2026-04-21 14:07 | -33.76080 | 25.79987 | 5001 ft | 256 kts | 72° |
| 2026-04-21 14:07 | -33.75601 | 25.81994 | 4995 ft | 244 kts | 72° |
| 2026-04-21 14:07 | -33.75141 | 25.83938 | 4880 ft | 246 kts | 75° |
| 2026-04-21 14:07 | -33.75110 | 25.86065 | 4222 ft | 266 kts | 105° |
| 2026-04-21 14:08 | -33.75685 | 25.88144 | 4119 ft | 258 kts | 112° |
| 2026-04-21 14:08 | -33.76491 | 25.90041 | 3933 ft | 255 kts | 137° |
| 2026-04-21 14:08 | -33.77982 | 25.91089 | 3710 ft | 251 kts | 175° |
| 2026-04-21 14:08 | -33.79691 | 25.90956 | 3503 ft | 247 kts | 199° |
| 2026-04-21 14:09 | -33.81379 | 25.90438 | 3264 ft | 252 kts | 200° |
| 2026-04-21 14:09 | -33.83029 | 25.89795 | 3057 ft | 244 kts | 212° |
| 2026-04-21 14:09 | -33.84209 | 25.88501 | 3040 ft | 220 kts | 234° |
| 2026-04-21 14:09 | -33.85149 | 25.87139 | 3005 ft | 202 kts | 234° |
| 2026-04-21 14:10 | -33.85952 | 25.85857 | 3000 ft | 182 kts | 238° |
| 2026-04-21 14:10 | -33.86617 | 25.84662 | 2987 ft | 163 kts | 240° |
| 2026-04-21 14:10 | -33.87219 | 25.83522 | 3010 ft | 160 kts | 241° |
| 2026-04-21 14:10 | -33.87744 | 25.82513 | 3002 ft | 159 kts | 241° |
| 2026-04-21 14:11 | -33.88324 | 25.81392 | 3022 ft | 156 kts | 241° |
| 2026-04-21 14:11 | -33.88894 | 25.80290 | 3010 ft | 153 kts | 241° |
| 2026-04-21 14:11 | -33.89446 | 25.79220 | 3010 ft | 149 kts | 241° |
| 2026-04-21 14:11 | -33.89988 | 25.78170 | 3012 ft | 147 kts | 242° |
| 2026-04-21 14:12 | -33.90530 | 25.77119 | 3017 ft | 148 kts | 242° |
| 2026-04-21 14:12 | -33.91070 | 25.76075 | 2909 ft | 145 kts | 242° |
| 2026-04-21 14:12 | -33.92045 | 25.74189 | 2571 ft | 124 kts | 242° |
| 2026-04-21 14:13 | -33.92489 | 25.73328 | 2401 ft | 120 kts | 242° |
| 2026-04-21 14:13 | -33.92929 | 25.72476 | 2245 ft | 120 kts | 242° |
| 2026-04-21 14:13 | -33.93369 | 25.71623 | 2087 ft | 120 kts | 241° |
| 2026-04-21 14:13 | -33.93810 | 25.70771 | 1923 ft | 120 kts | 241° |
| 2026-04-21 14:14 | -33.94257 | 25.69906 | 1766 ft | 122 kts | 241° |
| 2026-04-21 14:14 | -33.94706 | 25.69037 | 1611 ft | 121 kts | 240° |
| 2026-04-21 14:14 | -33.95148 | 25.68184 | 1434 ft | 119 kts | 240° |
| 2026-04-21 14:14 | -33.95593 | 25.67323 | 1294 ft | 123 kts | 240° |
| 2026-04-21 14:15 | -33.96043 | 25.66452 | 1111 ft | 120 kts | 240° |
| 2026-04-21 14:15 | -33.96481 | 25.65606 | 945 ft | 120 kts | 240° |
| 2026-04-21 14:15 | -33.96938 | 25.64730 | 814 ft | 124 kts | 239° |
| 2026-04-21 14:15 | -33.97385 | 25.63890 | 597 ft | 111 kts | 240° |
| 2026-04-21 14:16 | -33.97771 | 25.63108 | 416 ft | 115 kts | 239° |
| 2026-04-21 14:16 | -33.98204 | 25.62279 | 361 ft | 113 kts | 237° |
| 2026-04-21 14:16 | -33.98589 | 25.61542 | 214 ft | 93 kts | 238° |
| 2026-04-21 14:16 | -33.98844 | 25.61049 | 217 ft | 47 kts | 237° |
| 2026-04-21 14:17 | -33.99051 | 25.60650 | 208 ft | 64 kts | 238° |
| 2026-04-21 14:17 | -33.99245 | 25.60275 | 211 ft | 41 kts | 238° |
| 2026-04-21 14:17 | -33.99357 | 25.60048 | 214 ft | 21 kts | 252° |
| 2026-04-21 14:17 | -33.99289 | 25.59946 | 215 ft | 17 kts | 331° |
| 2026-04-21 14:18 | -33.99182 | 25.59990 | 212 ft | 20 kts | 56° |
| 2026-04-21 14:18 | -33.99092 | 25.60151 | 210 ft | 26 kts | 65° |
| 2026-04-21 14:18 | -33.99007 | 25.60312 | 215 ft | 21 kts | 57° |
| 2026-04-21 14:18 | -33.98913 | 25.60486 | 217 ft | 28 kts | 57° |
| 2026-04-21 14:19 | -33.98826 | 25.60647 | 215 ft | 19 kts | 57° |
| 2026-04-21 14:19 | -33.98742 | 25.60802 | 214 ft | 25 kts | 57° |
| 2026-04-21 14:19 | -33.98649 | 25.60978 | 213 ft | 21 kts | 58° |
| 2026-04-21 14:19 | -33.98591 | 25.61090 | 211 ft | 14 kts | 58° |
| 2026-04-21 14:20 | -33.98548 | 25.61173 | 213 ft | 11 kts | 58° |
| 2026-04-21 14:20 | -33.98510 | 25.61241 | 211 ft | 9 kts | 35° |
| 2026-04-21 14:20 | -33.98476 | 25.61235 | 219 ft | 5 kts | 327° |
| 2026-04-21 14:20 | -33.98462 | 25.61223 | 213 ft | 0 kts | 328° |